createdAt,value
2022-11-19T00:01:05.865Z,7.22
2022-11-19T00:03:34.706Z,8.23
2022-11-19T00:06:08.315Z,6.15
2022-11-19T00:08:35.702Z,7.88
2022-11-19T00:11:15.852Z,9.57
2022-11-19T00:13:43.508Z,8.15
2022-11-19T00:16:14.762Z,8.27
2022-11-19T00:18:42.045Z,8.00
2022-11-19T00:21:11.995Z,7.63
2022-11-19T00:23:40.143Z,8.52
2022-11-19T00:26:12.467Z,9.18
2022-11-19T00:28:40.549Z,8.17
2022-11-19T00:31:10.623Z,6.43
2022-11-19T00:33:39.055Z,9.68
2022-11-19T00:36:08.401Z,8.88
2022-11-19T00:38:35.976Z,11.20
2022-11-19T00:41:03.190Z,10.37
2022-11-19T00:43:30.308Z,10.60
2022-11-19T00:45:57.185Z,7.20
2022-11-19T00:48:23.994Z,8.00
2022-11-19T00:50:50.962Z,6.80
2022-11-19T00:53:18.208Z,8.57
2022-11-19T00:55:44.964Z,10.68
2022-11-19T00:58:11.895Z,10.85
2022-11-19T01:00:38.951Z,10.00
2022-11-19T01:03:06.436Z,8.70
2022-11-19T01:05:34.520Z,8.33
2022-11-19T01:08:01.294Z,7.47
2022-11-19T01:10:28.215Z,11.10
2022-11-19T01:12:55.093Z,9.80
2022-11-19T01:15:21.903Z,9.77
2022-11-19T01:17:53.144Z,8.17
2022-11-19T01:20:21.184Z,7.05
2022-11-19T01:22:48.188Z,9.07
2022-11-19T01:25:15.038Z,8.55
2022-11-19T01:27:41.913Z,8.55
2022-11-19T01:30:09.789Z,10.03
2022-11-19T01:32:37.423Z,9.57
2022-11-19T01:35:04.847Z,7.90
2022-11-19T01:37:31.752Z,10.75
2022-11-19T01:39:58.624Z,9.00
2022-11-19T01:42:31.489Z,9.10
2022-11-19T01:45:07.925Z,8.05
2022-11-19T01:47:34.930Z,6.88
2022-11-19T01:50:03.188Z,6.00
2022-11-19T01:52:30.391Z,8.27
2022-11-19T01:54:57.325Z,8.80
2022-11-19T01:57:26.114Z,7.35
2022-11-19T01:59:53.528Z,9.45
2022-11-19T02:02:21.346Z,7.95
2022-11-19T02:04:49.509Z,10.80
2022-11-19T02:07:18.015Z,9.90
2022-11-19T02:09:46.655Z,9.57
2022-11-19T02:12:20.020Z,10.85
2022-11-19T02:15:24.211Z,8.88
2022-11-19T02:18:12.521Z,8.55
2022-11-19T02:20:52.709Z,14.17
2022-11-19T02:23:45.745Z,8.10
2022-11-19T02:26:22.143Z,8.80
2022-11-19T02:29:07.715Z,10.00
2022-11-19T02:31:49.481Z,11.25
2022-11-19T02:34:41.736Z,11.93
2022-11-19T02:37:17.388Z,7.55
2022-11-19T02:40:00.942Z,6.60
2022-11-19T02:42:38.184Z,11.07
2022-11-19T02:45:37.197Z,8.05
2022-11-19T02:48:10.076Z,7.83
2022-11-19T02:50:43.667Z,8.45
2022-11-19T02:53:11.245Z,12.48
2022-11-19T02:55:40.354Z,11.02
2022-11-19T02:58:20.360Z,10.40
2022-11-19T03:00:49.786Z,8.50
2022-11-19T03:03:21.400Z,11.20
2022-11-19T03:05:53.943Z,8.63
2022-11-19T03:08:21.689Z,7.90
2022-11-19T03:11:25.784Z,10.13
2022-11-19T03:14:19.350Z,9.00
2022-11-19T03:16:54.319Z,11.57
2022-11-19T03:19:21.419Z,9.85
2022-11-19T03:21:56.899Z,11.38
2022-11-19T03:24:32.057Z,10.43
2022-11-19T03:27:08.992Z,11.00
2022-11-19T03:29:42.114Z,7.95
2022-11-19T03:32:15.004Z,9.70
2022-11-19T03:34:46.052Z,12.35
2022-11-19T03:37:17.422Z,10.45
2022-11-19T03:39:47.451Z,9.10
2022-11-19T03:42:17.015Z,12.68
2022-11-19T03:44:45.672Z,7.93
2022-11-19T03:47:19.280Z,10.88
2022-11-19T03:49:50.840Z,13.43
2022-11-19T03:52:22.639Z,12.27
2022-11-19T03:54:50.608Z,8.38
2022-11-19T03:57:20.175Z,8.40
2022-11-19T03:59:47.847Z,9.48
2022-11-19T04:02:15.491Z,11.60
2022-11-19T04:04:44.418Z,9.27
2022-11-19T04:07:14.614Z,8.45
2022-11-19T04:09:43.010Z,12.00
2022-11-19T04:12:17.257Z,12.27
2022-11-19T04:14:46.081Z,10.13
2022-11-19T04:17:13.703Z,7.87
2022-11-19T04:19:40.727Z,12.38
2022-11-19T04:22:07.883Z,11.45
2022-11-19T04:24:36.159Z,11.10
2022-11-19T04:27:03.610Z,12.45
2022-11-19T04:29:31.183Z,7.10
2022-11-19T04:31:58.135Z,9.93
2022-11-19T04:34:25.230Z,9.07
2022-11-19T04:36:52.108Z,7.57
2022-11-19T04:39:19.221Z,11.27
2022-11-19T04:41:46.210Z,9.80
2022-11-19T04:44:13.043Z,13.07
2022-11-19T04:46:40.240Z,9.52
2022-11-19T04:49:07.260Z,9.13
2022-11-19T04:51:34.196Z,11.18
2022-11-19T04:54:01.178Z,11.40
2022-11-19T04:56:28.090Z,8.00
2022-11-19T04:58:55.004Z,7.50
2022-11-19T05:01:22.035Z,11.75
2022-11-19T05:03:48.905Z,10.02
2022-11-19T05:06:15.768Z,10.03
2022-11-19T05:08:42.499Z,8.30
2022-11-19T05:11:10.887Z,11.73
2022-11-19T05:13:37.823Z,9.90
2022-11-19T05:16:05.005Z,8.40
2022-11-19T05:18:31.933Z,7.57
2022-11-19T05:20:58.695Z,7.93
2022-11-19T05:23:25.624Z,8.90
2022-11-19T05:25:52.673Z,9.68
2022-11-19T05:28:24.834Z,11.15
2022-11-19T05:31:00.191Z,10.23
2022-11-19T05:36:03.051Z,13.20
2022-11-19T05:38:30.121Z,11.45
2022-11-19T05:40:56.966Z,11.60
2022-11-19T05:43:23.699Z,12.83
2022-11-19T05:45:51.299Z,11.30
2022-11-19T05:48:19.134Z,14.85
2022-11-19T05:50:46.023Z,12.75
2022-11-19T05:53:12.827Z,11.50
2022-11-19T05:55:39.668Z,16.53
2022-11-19T05:58:06.420Z,13.55
2022-11-19T06:00:34.743Z,11.85
2022-11-19T06:03:02.845Z,10.90
2022-11-19T06:05:29.677Z,11.50
2022-11-19T06:07:56.360Z,14.10
2022-11-19T06:10:23.748Z,9.68
2022-11-19T06:12:50.643Z,10.88
2022-11-19T06:15:17.687Z,15.95
2022-11-19T06:17:45.847Z,10.25
2022-11-19T06:20:12.715Z,12.67
2022-11-19T06:22:40.211Z,13.95
2022-11-19T06:25:07.937Z,13.10
2022-11-19T06:27:34.896Z,11.65
2022-11-19T06:30:01.872Z,13.20
2022-11-19T06:32:29.039Z,14.33
2022-11-19T06:34:55.914Z,16.98
2022-11-19T06:37:22.782Z,15.45
2022-11-19T06:39:49.795Z,18.50
2022-11-19T06:42:16.610Z,12.70
2022-11-19T06:44:43.491Z,15.93
2022-11-19T06:47:10.280Z,13.65
2022-11-19T06:49:37.181Z,19.20
2022-11-19T06:52:04.195Z,16.55
2022-11-19T06:54:30.985Z,13.63
2022-11-19T06:56:57.813Z,15.17
2022-11-19T06:59:24.634Z,15.85
2022-11-19T07:01:51.546Z,16.85
2022-11-19T07:04:18.777Z,13.02
2022-11-19T07:06:48.286Z,17.75
2022-11-19T07:09:15.174Z,16.27
2022-11-19T07:11:42.014Z,18.58
2022-11-19T07:14:09.045Z,15.02
2022-11-19T07:16:36.868Z,14.48
2022-11-19T07:19:07.053Z,18.80
2022-11-19T07:21:36.897Z,16.17
2022-11-19T07:24:07.209Z,14.63
2022-11-19T07:26:35.491Z,14.77
2022-11-19T07:29:04.995Z,14.82
2022-11-19T07:31:32.650Z,17.02
2022-11-19T07:33:59.879Z,15.40
2022-11-19T07:36:26.779Z,15.50
2022-11-19T07:38:53.563Z,15.07
2022-11-19T07:41:20.680Z,14.93
2022-11-19T07:43:47.760Z,16.52
2022-11-19T07:46:14.497Z,19.13
2022-11-19T07:48:41.377Z,12.43
2022-11-19T07:51:08.326Z,19.13
2022-11-19T07:53:35.295Z,18.45
2022-11-19T07:56:02.901Z,16.73
2022-11-19T07:58:29.778Z,20.83
2022-11-19T08:00:56.735Z,16.55
2022-11-19T08:03:23.551Z,16.83
2022-11-19T08:05:50.404Z,20.30
2022-11-19T08:08:17.396Z,14.25
2022-11-19T08:10:44.434Z,17.27
2022-11-19T08:13:11.394Z,18.40
2022-11-19T08:15:38.516Z,20.45
2022-11-19T08:18:05.526Z,19.15
2022-11-19T08:20:32.420Z,19.88
2022-11-19T08:22:59.419Z,16.77
2022-11-19T08:25:26.581Z,18.73
2022-11-19T08:27:56.395Z,19.00
2022-11-19T08:30:24.521Z,18.50
2022-11-19T08:32:54.892Z,18.88
2022-11-19T08:35:24.817Z,16.17
2022-11-19T08:37:51.829Z,21.70
2022-11-19T08:40:19.719Z,21.05
2022-11-19T08:42:46.595Z,16.00
2022-11-19T08:45:16.826Z,25.63
2022-11-19T08:47:47.761Z,16.50
2022-11-19T08:50:15.060Z,18.80
2022-11-19T08:52:41.905Z,17.15
2022-11-19T08:55:09.381Z,14.60
2022-11-19T08:57:36.235Z,23.02
2022-11-19T09:00:06.451Z,17.93
2022-11-19T09:02:35.156Z,15.00
2022-11-19T09:05:02.017Z,14.38
2022-11-19T09:07:29.231Z,18.48
2022-11-19T09:09:56.190Z,20.00
2022-11-19T09:12:23.313Z,22.57
2022-11-19T09:14:50.869Z,18.27
2022-11-19T09:17:17.667Z,18.42
2022-11-19T09:19:44.600Z,19.92
2022-11-19T09:22:11.408Z,22.75
2022-11-19T09:24:38.683Z,19.10
2022-11-19T09:27:05.721Z,17.52
2022-11-19T09:29:32.677Z,16.33
2022-11-19T09:31:59.760Z,15.23
2022-11-19T09:34:26.706Z,16.52
2022-11-19T09:36:53.726Z,15.47
2022-11-19T09:39:21.139Z,19.55
2022-11-19T09:42:27.556Z,17.05
2022-11-19T09:45:22.498Z,12.60
2022-11-19T09:48:34.586Z,10.90
2022-11-19T09:51:23.899Z,19.43
2022-11-19T09:54:02.730Z,14.15
2022-11-19T09:56:38.806Z,13.43
2022-11-19T09:59:17.545Z,17.45
2022-11-19T10:01:44.745Z,11.35
2022-11-19T10:04:12.533Z,12.73
2022-11-19T10:07:03.192Z,14.90
2022-11-19T10:09:59.398Z,15.65
2022-11-19T10:12:38.093Z,13.90
2022-11-19T10:15:15.985Z,15.45
2022-11-19T10:18:20.846Z,10.47
2022-11-19T10:20:50.515Z,12.52
2022-11-19T10:23:31.171Z,17.20
2022-11-19T10:26:05.323Z,12.25
2022-11-19T10:28:36.870Z,11.15
2022-11-19T10:31:12.008Z,15.97
2022-11-19T10:33:51.956Z,13.27
2022-11-19T10:36:36.541Z,13.45
2022-11-19T10:39:31.505Z,11.57
2022-11-19T10:42:16.606Z,10.63
2022-11-19T10:47:45.540Z,13.05
2022-11-19T10:50:23.265Z,12.68
2022-11-19T10:53:00.067Z,12.55
2022-11-19T10:55:44.486Z,12.57
2022-11-19T10:58:19.725Z,13.03
2022-11-19T11:00:47.332Z,9.30
2022-11-19T11:03:26.950Z,10.07
2022-11-19T11:05:57.443Z,11.88
2022-11-19T11:08:24.599Z,13.23
2022-11-19T11:10:52.986Z,15.50
2022-11-19T11:13:52.335Z,9.80
2022-11-19T11:19:23.344Z,15.23
2022-11-19T11:21:55.134Z,12.05
2022-11-19T11:24:22.257Z,12.00
2022-11-19T11:27:09.486Z,11.45
2022-11-19T11:29:36.365Z,11.05
2022-11-19T11:32:26.805Z,11.07
2022-11-19T11:34:54.391Z,10.05
2022-11-19T11:37:21.416Z,12.63
2022-11-19T11:39:53.987Z,10.40
2022-11-19T11:42:25.950Z,11.55
2022-11-19T11:44:57.233Z,10.52
2022-11-19T11:47:32.283Z,11.13
2022-11-19T11:50:20.363Z,11.57
2022-11-19T11:52:52.491Z,13.80
2022-11-19T11:55:28.654Z,15.20
2022-11-19T11:58:05.777Z,12.20
2022-11-19T12:00:53.907Z,12.23
2022-11-19T12:03:22.430Z,10.13
2022-11-19T12:06:12.390Z,13.90
2022-11-19T12:08:47.886Z,15.13
2022-11-19T12:11:51.447Z,12.55
2022-11-19T12:14:37.100Z,14.27
2022-11-19T12:17:22.703Z,12.53
2022-11-19T12:19:55.288Z,13.82
2022-11-19T12:22:31.677Z,14.02
2022-11-19T12:25:36.315Z,16.30
2022-11-19T12:28:22.037Z,12.98
2022-11-19T12:31:30.121Z,11.47
2022-11-19T12:34:07.810Z,18.15
2022-11-19T12:36:57.682Z,12.45
2022-11-19T12:39:47.174Z,11.43
2022-11-19T12:42:39.453Z,14.20
2022-11-19T12:45:46.748Z,11.83
2022-11-19T12:48:50.882Z,11.30
2022-11-19T12:51:39.672Z,10.55
2022-11-19T12:54:35.188Z,14.75
2022-11-19T12:57:29.940Z,11.70
2022-11-19T13:00:15.210Z,10.00
2022-11-19T13:03:09.570Z,11.50
2022-11-19T13:05:57.734Z,10.55
2022-11-19T13:08:49.004Z,11.82
2022-11-19T13:11:20.354Z,9.52
2022-11-19T13:13:52.736Z,9.73
2022-11-19T13:16:22.554Z,14.52
2022-11-19T13:19:05.762Z,8.90
2022-11-19T13:22:03.293Z,11.63
2022-11-19T13:24:42.559Z,10.15
2022-11-19T13:27:22.735Z,12.83
2022-11-19T13:30:20.339Z,10.07
2022-11-19T13:33:18.061Z,11.07
2022-11-19T13:36:24.687Z,9.27
2022-11-19T13:39:01.403Z,11.45
2022-11-19T13:41:36.736Z,10.73
2022-11-19T13:44:04.696Z,11.05
2022-11-19T13:46:42.759Z,11.55
2022-11-19T13:49:34.032Z,9.07
2022-11-19T13:52:07.379Z,15.98
2022-11-19T13:54:39.990Z,11.90
2022-11-19T13:57:09.185Z,12.93
2022-11-19T13:59:44.119Z,13.52
2022-11-19T14:02:37.333Z,10.70
2022-11-19T14:05:24.397Z,11.32
2022-11-19T14:08:14.379Z,11.07
2022-11-19T14:10:43.995Z,13.23
2022-11-19T14:13:29.562Z,9.90
2022-11-19T14:16:07.654Z,12.02
2022-11-19T14:18:42.097Z,10.68
2022-11-19T14:21:29.127Z,12.37
2022-11-19T14:23:56.518Z,11.05
2022-11-19T14:26:41.336Z,10.80
2022-11-19T14:29:30.965Z,9.50
2022-11-19T14:32:00.593Z,10.85
2022-11-19T14:34:36.907Z,11.00
2022-11-19T14:37:15.832Z,11.98
2022-11-19T14:39:45.457Z,9.43
2022-11-19T14:42:20.218Z,10.48
2022-11-19T14:45:06.941Z,11.27
2022-11-19T14:47:39.032Z,7.50
2022-11-19T14:50:09.755Z,11.27
2022-11-19T14:53:10.660Z,11.38
2022-11-19T14:55:40.057Z,12.40
2022-11-19T14:58:19.802Z,9.18
2022-11-19T15:00:47.092Z,10.00
2022-11-19T15:03:22.832Z,13.88
2022-11-19T15:05:52.261Z,10.63
2022-11-19T15:08:19.147Z,13.10
2022-11-19T15:11:09.135Z,11.80
2022-11-19T15:13:39.257Z,11.40
2022-11-19T15:16:19.310Z,12.75
2022-11-19T15:18:46.024Z,12.20
2022-11-19T15:21:24.990Z,10.00
2022-11-19T15:23:57.606Z,9.90
2022-11-19T15:26:45.745Z,9.03
2022-11-19T15:29:21.819Z,8.95
2022-11-19T15:32:15.382Z,8.55
2022-11-19T15:35:11.901Z,16.42
2022-11-19T15:37:51.446Z,21.45
2022-11-19T15:40:30.095Z,13.80
2022-11-19T15:43:15.155Z,18.65
2022-11-19T15:45:51.784Z,15.50
2022-11-19T15:49:03.828Z,18.15
2022-11-19T15:51:40.917Z,15.10
2022-11-19T15:54:12.522Z,12.70
2022-11-19T15:56:49.827Z,16.42
2022-11-19T15:59:20.437Z,13.00
2022-11-19T16:01:59.311Z,13.32
2022-11-19T16:04:32.005Z,13.48
2022-11-19T16:06:59.096Z,11.97
2022-11-19T16:09:27.780Z,11.23
2022-11-19T16:11:56.821Z,11.10
2022-11-19T16:14:26.723Z,14.38
2022-11-19T16:16:53.857Z,15.20
2022-11-19T16:19:20.942Z,17.40
2022-11-19T16:22:00.419Z,13.50
2022-11-19T16:24:31.761Z,15.07
2022-11-19T16:27:01.444Z,15.55
2022-11-19T16:29:28.860Z,15.65
2022-11-19T16:31:58.905Z,8.93
2022-11-19T16:34:32.683Z,15.40
2022-11-19T16:36:59.939Z,10.57
2022-11-19T16:39:31.832Z,14.80
2022-11-19T16:42:02.424Z,12.10
2022-11-19T16:44:30.055Z,12.60
2022-11-19T16:46:56.998Z,11.30
2022-11-19T16:49:48.499Z,12.43
2022-11-19T16:52:37.387Z,11.43
2022-11-19T16:55:25.764Z,13.35
2022-11-19T16:57:55.973Z,11.80
2022-11-19T17:00:25.575Z,14.23
2022-11-19T17:02:53.000Z,14.63
2022-11-19T17:05:25.049Z,12.85
2022-11-19T17:08:03.914Z,14.07
2022-11-19T17:10:32.001Z,16.57
2022-11-19T17:13:04.260Z,14.93
2022-11-19T17:15:42.635Z,16.33
2022-11-19T17:18:39.427Z,15.50
2022-11-19T17:21:33.390Z,14.80
2022-11-19T17:24:00.582Z,13.37
2022-11-19T17:26:27.590Z,14.77
2022-11-19T17:29:18.605Z,13.45
2022-11-19T17:31:50.059Z,13.90
2022-11-19T17:34:46.182Z,12.70
2022-11-19T17:37:13.587Z,19.23
2022-11-19T17:39:40.468Z,16.95
2022-11-19T17:42:10.445Z,14.00
2022-11-19T17:44:43.374Z,18.02
2022-11-19T17:47:21.934Z,22.02
2022-11-19T17:49:50.460Z,20.87
2022-11-19T17:52:29.698Z,21.67
2022-11-19T17:55:02.071Z,20.73
2022-11-19T17:57:29.000Z,20.58
2022-11-19T17:59:56.029Z,19.90
2022-11-19T18:02:23.437Z,24.27
2022-11-19T18:04:50.960Z,20.05
2022-11-19T18:07:17.904Z,18.45
2022-11-19T18:09:44.980Z,15.68
2022-11-19T18:12:18.023Z,17.60
2022-11-19T18:14:48.090Z,19.40
2022-11-19T18:17:16.245Z,22.42
2022-11-19T18:19:43.024Z,15.13
2022-11-19T18:22:19.180Z,17.50
2022-11-19T18:24:50.807Z,22.67
2022-11-19T18:27:18.079Z,24.13
2022-11-19T18:29:44.867Z,20.52
2022-11-19T18:32:12.482Z,17.17
2022-11-19T18:34:39.293Z,17.83
2022-11-19T18:37:06.199Z,21.23
2022-11-19T18:39:33.217Z,19.50
2022-11-19T18:42:00.399Z,19.52
2022-11-19T18:44:29.757Z,26.75
2022-11-19T18:46:56.710Z,26.65
2022-11-19T18:49:26.544Z,21.02
2022-11-19T18:51:53.456Z,19.90
2022-11-19T18:54:20.399Z,16.60
2022-11-19T18:56:47.229Z,17.05
2022-11-19T18:59:14.847Z,23.23
2022-11-19T19:01:42.902Z,21.35
2022-11-19T19:04:13.944Z,17.20
2022-11-19T19:06:41.585Z,18.60
2022-11-19T19:09:08.866Z,20.55
2022-11-19T19:11:36.003Z,16.67
2022-11-19T19:14:02.978Z,25.20
2022-11-19T19:16:29.997Z,24.53
2022-11-19T19:18:56.824Z,18.45
2022-11-19T19:21:27.095Z,18.83
2022-11-19T19:23:56.567Z,19.70
2022-11-19T19:26:29.652Z,22.02
2022-11-19T19:28:56.815Z,22.57
2022-11-19T19:31:24.798Z,19.17
2022-11-19T19:33:53.261Z,19.00
2022-11-19T19:36:21.317Z,19.88
2022-11-19T19:38:48.414Z,25.80
2022-11-19T19:41:21.583Z,21.73
2022-11-19T19:43:50.285Z,19.65
2022-11-19T19:46:19.262Z,19.70
2022-11-19T19:48:48.731Z,23.70
2022-11-19T19:51:17.348Z,18.17
2022-11-19T19:53:44.190Z,17.47
2022-11-19T19:56:18.586Z,18.45
2022-11-19T19:58:46.670Z,14.10
2022-11-19T20:01:25.180Z,19.73
2022-11-19T20:03:54.633Z,16.30
2022-11-19T20:06:23.721Z,16.00
2022-11-19T20:08:51.167Z,15.00
2022-11-19T20:11:23.510Z,12.23
2022-11-19T20:13:50.955Z,11.60
2022-11-19T20:16:30.150Z,9.48
2022-11-19T20:19:01.105Z,11.67
2022-11-19T20:21:30.454Z,15.13
2022-11-19T20:23:57.720Z,12.10
2022-11-19T20:26:27.870Z,13.77
2022-11-19T20:29:02.156Z,16.98
2022-11-19T20:31:30.226Z,12.37
2022-11-19T20:34:02.023Z,11.85
2022-11-19T20:36:30.962Z,12.48
2022-11-19T20:38:57.857Z,12.95
2022-11-19T20:41:25.963Z,13.95
2022-11-19T20:43:53.061Z,14.30
2022-11-19T20:46:21.940Z,10.93
2022-11-19T20:48:49.605Z,13.57
2022-11-19T20:51:16.996Z,13.75
2022-11-19T20:53:44.009Z,10.20
2022-11-19T20:56:12.821Z,11.77
2022-11-19T20:58:39.738Z,12.75
2022-11-19T21:01:08.562Z,12.43
2022-11-19T21:03:35.456Z,11.93
2022-11-19T21:06:04.792Z,11.02
2022-11-19T21:08:32.920Z,11.67
2022-11-19T21:11:02.551Z,12.27
2022-11-19T21:13:29.978Z,12.52
2022-11-19T21:15:58.596Z,11.73
2022-11-19T21:18:26.538Z,13.07
2022-11-19T21:20:59.987Z,16.33
2022-11-19T21:23:28.039Z,21.90
2022-11-19T21:26:05.532Z,14.93
2022-11-19T21:28:34.722Z,15.55
2022-11-19T21:31:02.462Z,26.35
2022-11-19T21:33:29.484Z,17.33
2022-11-19T21:35:57.097Z,14.30
2022-11-19T21:38:25.100Z,25.92
2022-11-19T21:40:53.962Z,19.85
2022-11-19T21:43:22.021Z,21.42
2022-11-19T21:45:48.965Z,18.80
2022-11-19T21:48:19.395Z,19.02
2022-11-19T21:50:46.745Z,17.20
2022-11-19T21:53:13.679Z,20.33
2022-11-19T21:55:44.791Z,15.80
2022-11-19T21:58:13.433Z,17.57
2022-11-19T22:00:42.105Z,17.70
2022-11-19T22:03:10.727Z,15.45
2022-11-19T22:05:37.643Z,16.00
2022-11-19T22:08:04.667Z,19.58
2022-11-19T22:10:31.568Z,15.00
2022-11-19T22:12:59.057Z,22.38
2022-11-19T22:15:27.775Z,25.35
2022-11-19T22:17:55.392Z,19.02
2022-11-19T22:20:22.230Z,20.48
2022-11-19T22:22:49.390Z,19.87
2022-11-19T22:25:16.940Z,14.00
2022-11-19T22:27:44.516Z,18.52
2022-11-19T22:30:13.147Z,24.98
2022-11-19T22:32:40.015Z,15.80
2022-11-19T22:35:08.791Z,19.10
2022-11-19T22:37:38.497Z,17.45
2022-11-19T22:40:07.465Z,12.88
2022-11-19T22:42:35.032Z,11.38
2022-11-19T22:45:02.001Z,11.00
2022-11-19T22:47:30.107Z,11.80
2022-11-19T22:49:58.059Z,11.85
2022-11-19T22:52:26.163Z,18.48
2022-11-19T22:54:53.189Z,18.17
2022-11-19T22:57:20.026Z,15.13
2022-11-19T22:59:48.865Z,15.67
2022-11-19T23:02:15.993Z,13.38
2022-11-19T23:04:42.822Z,12.48
2022-11-19T23:07:09.909Z,12.77
2022-11-19T23:09:36.848Z,14.07
2022-11-19T23:12:04.161Z,11.70
2022-11-19T23:14:31.177Z,15.68
2022-11-19T23:16:58.003Z,13.57
2022-11-19T23:19:27.152Z,16.95
2022-11-19T23:21:55.468Z,13.23
2022-11-19T23:24:22.454Z,17.50
2022-11-19T23:26:50.036Z,21.35
2022-11-19T23:29:16.956Z,24.00
2022-11-19T23:31:43.719Z,17.48
2022-11-19T23:34:10.703Z,19.30
2022-11-19T23:36:39.986Z,18.57
2022-11-19T23:39:11.677Z,24.83
2022-11-19T23:41:39.860Z,20.75
2022-11-19T23:44:09.166Z,18.30
2022-11-19T23:46:37.480Z,18.92
2022-11-19T23:49:05.427Z,24.97
2022-11-19T23:51:37.923Z,25.25
2022-11-19T23:54:05.823Z,27.27
2022-11-19T23:56:34.527Z,26.30
2022-11-19T23:59:02.365Z,20.65
